Time;durP1;ratioP1;P1;durP2;ratioP2;P2;SDS_P1;SDS_P2;PMS_P1;PMS_P2;Temp;Humidity;BMP_temperature;BMP_pressure;BME280_temperature;BME280_humidity;BME280_pressure;Samples;Min_cycle;Max_cycle;Signal;HPM_P1;HPM_P2
2021/08/19 00:01:13;;;;;;;6.00;4.40;;;;;;;25.63;52.71;99445.89;1789050;78;21040;-64
2021/08/19 00:03:40;;;;;;;4.55;4.10;;;;;;;25.62;52.69;99446.96;1804611;78;21202;-63
2021/08/19 00:06:06;;;;;;;4.85;4.35;;;;;;;25.60;52.64;99450.50;1792943;80;21048;-64
2021/08/19 00:08:33;;;;;;;4.30;3.90;;;;;;;25.59;52.81;99448.05;1792626;78;21048;-64
2021/08/19 00:11:01;;;;;;;4.70;4.10;;;;;;;25.58;52.86;99441.00;1801925;78;21032;-64
2021/08/19 00:13:29;;;;;;;5.22;4.25;;;;;;;25.56;52.89;99425.50;1792773;79;21100;-64
2021/08/19 00:15:57;;;;;;;4.62;4.20;;;;;;;25.55;52.95;99432.83;1793186;79;21096;-64
2021/08/19 00:18:23;;;;;;;4.65;4.20;;;;;;;25.54;52.98;99427.69;1790575;79;21035;-64
2021/08/19 00:20:51;;;;;;;5.37;4.50;;;;;;;25.53;52.90;99421.41;1792705;79;21079;-66
2021/08/19 00:23:17;;;;;;;8.00;4.65;;;;;;;25.53;52.80;99415.97;1799526;79;21540;-65
2021/08/19 00:25:45;;;;;;;5.62;3.90;;;;;;;25.51;52.71;99417.59;1821641;78;21053;-65
2021/08/19 00:28:11;;;;;;;4.30;3.87;;;;;;;25.51;52.55;99416.79;1813279;78;21120;-64
2021/08/19 00:30:40;;;;;;;5.53;4.87;;;;;;;25.49;52.73;99416.25;1784456;79;21426;-64
2021/08/19 00:33:08;;;;;;;4.15;3.75;;;;;;;25.48;52.55;99413.28;1814995;78;20985;-65
2021/08/19 00:35:36;;;;;;;4.08;3.75;;;;;;;25.47;52.58;99414.35;1798872;77;21484;-66
2021/08/19 00:38:02;;;;;;;3.98;3.58;;;;;;;25.46;52.50;99410.83;1780501;79;21049;-65
2021/08/19 00:40:29;;;;;;;4.55;4.05;;;;;;;25.44;52.46;99406.20;1790417;79;21824;-65
2021/08/19 00:42:57;;;;;;;4.72;4.33;;;;;;;25.45;52.49;99408.38;1786920;79;21056;-65
2021/08/19 00:45:25;;;;;;;4.10;3.50;;;;;;;25.43;52.46;99407.28;1784574;79;21499;-65
2021/08/19 00:47:52;;;;;;;4.65;4.25;;;;;;;25.43;52.33;99405.12;1808942;78;21041;-65
2021/08/19 00:50:19;;;;;;;3.52;3.20;;;;;;;25.42;52.27;99406.19;1787266;79;21055;-64
2021/08/19 00:52:47;;;;;;;3.58;3.27;;;;;;;25.42;52.20;99406.19;1764094;80;21021;-64
2021/08/19 00:55:15;;;;;;;3.85;3.55;;;;;;;25.40;52.14;99407.02;1758815;80;21535;-64
2021/08/19 00:57:43;;;;;;;4.87;4.42;;;;;;;25.40;52.25;99416.53;1762855;80;21060;-66
2021/08/19 01:00:11;;;;;;;6.00;3.72;;;;;;;25.37;52.18;99416.54;1768314;80;21072;-65
2021/08/19 01:02:40;;;;;;;4.33;3.47;;;;;;;25.34;52.19;99426.59;1742589;81;21065;-65
2021/08/19 01:05:11;;;;;;;4.22;3.60;;;;;;;25.35;52.14;99431.51;1754317;80;21157;-65
2021/08/19 01:07:37;;;;;;;4.50;3.70;;;;;;;25.33;52.08;99438.57;1762072;80;21069;-64
2021/08/19 01:10:06;;;;;;;4.53;3.70;;;;;;;25.31;52.03;99451.63;1767074;80;21044;-65
2021/08/19 01:12:33;;;;;;;3.83;3.52;;;;;;;25.31;51.90;99457.06;1765187;80;21541;-65
2021/08/19 01:15:00;;;;;;;5.33;3.60;;;;;;;25.30;51.98;99456.77;1741011;81;21100;-65
2021/08/19 01:17:28;;;;;;;4.65;3.08;;;;;;;25.28;51.96;99456.23;1763201;80;21147;-65
2021/08/19 01:19:57;;;;;;;4.03;3.25;;;;;;;25.28;52.10;99448.92;1756706;80;21029;-65
2021/08/19 01:22:26;;;;;;;4.92;3.72;;;;;;;25.27;52.18;99449.98;1749698;80;21084;-66
2021/08/19 01:24:53;;;;;;;4.40;3.72;;;;;;;25.28;52.12;99453.52;1742658;80;21061;-64
2021/08/19 01:27:21;;;;;;;3.92;3.50;;;;;;;25.26;52.17;99449.70;1749580;80;21552;-66
2021/08/19 01:29:51;;;;;;;3.80;3.50;;;;;;;25.25;52.22;99443.20;1756564;79;21604;-65
2021/08/19 01:32:18;;;;;;;5.05;3.55;;;;;;;25.24;52.08;99441.01;1761514;79;21501;-65
2021/08/19 01:34:46;;;;;;;5.03;3.75;;;;;;;25.22;52.02;99445.91;1746145;80;21243;-65
2021/08/19 01:37:14;;;;;;;4.25;3.33;;;;;;;25.21;52.09;99446.97;1806296;79;20999;-64
2021/08/19 01:39:40;;;;;;;5.45;3.62;;;;;;;25.21;52.21;99453.77;1802073;79;21038;-66
2021/08/19 01:42:09;;;;;;;4.60;3.47;;;;;;;25.21;52.15;99451.61;1775871;79;21721;-65
2021/08/19 01:44:35;;;;;;;4.28;3.30;;;;;;;25.19;52.19;99442.88;1804329;79;21021;-66
2021/08/19 01:47:04;;;;;;;4.12;3.70;;;;;;;25.18;52.28;99442.07;1813964;79;22020;-65
2021/08/19 01:49:32;;;;;;;3.75;3.45;;;;;;;25.18;52.31;99442.63;1806870;79;21525;-65
2021/08/19 01:52:00;;;;;;;5.00;3.70;;;;;;;25.16;52.30;99453.76;1795476;78;21009;-66
2021/08/19 01:54:28;;;;;;;4.15;3.33;;;;;;;25.15;52.32;99449.42;1791487;79;21640;-66
2021/08/19 01:56:55;;;;;;;4.30;3.02;;;;;;;25.15;52.25;99448.59;1802357;79;21521;-65
2021/08/19 01:59:28;;;;;;;3.80;3.35;;;;;;;25.12;52.28;99437.17;1806614;78;21037;-65
2021/08/19 02:01:57;;;;;;;3.30;3.00;;;;;;;25.13;52.19;99433.94;1803746;79;21003;-66
2021/08/19 02:04:25;;;;;;;4.33;3.25;;;;;;;25.11;52.23;99430.64;1794546;79;21048;-65
2021/08/19 02:06:51;;;;;;;4.05;3.20;;;;;;;25.10;52.24;99433.91;1801828;79;21576;-64
2021/08/19 02:09:19;;;;;;;5.62;3.50;;;;;;;25.09;52.11;99442.33;1802985;78;21096;-64
2021/08/19 02:11:48;;;;;;;3.70;3.22;;;;;;;25.09;52.21;99445.05;1803174;78;21086;-66
2021/08/19 02:14:15;;;;;;;4.62;3.27;;;;;;;25.07;52.23;99446.70;1820321;78;21572;-64
2021/08/19 02:16:42;;;;;;;3.37;3.02;;;;;;;25.07;52.30;99447.23;1796699;78;20971;-63
2021/08/19 02:19:08;;;;;;;3.90;3.33;;;;;;;25.07;52.23;99448.59;1787109;79;21104;-64
2021/08/19 02:21:36;;;;;;;5.50;3.42;;;;;;;25.05;52.31;99447.52;1788935;80;21009;-64
2021/08/19 02:24:04;;;;;;;4.47;3.70;;;;;;;25.04;52.27;99443.71;1818098;78;21016;-65
2021/08/19 02:26:31;;;;;;;5.40;3.70;;;;;;;25.02;52.23;99436.37;1779122;79;21065;-64
2021/08/19 02:28:57;;;;;;;3.90;3.50;;;;;;;25.01;52.27;99439.61;1777310;79;21022;-63
2021/08/19 02:31:24;;;;;;;5.67;3.25;;;;;;;25.01;52.22;99440.16;1794418;79;21847;-64
2021/08/19 02:33:50;;;;;;;4.28;3.85;;;;;;;24.99;52.15;99440.42;1775464;79;21968;-64
2021/08/19 02:36:18;;;;;;;4.25;3.10;;;;;;;24.99;52.28;99439.63;1787320;79;21013;-65
2021/08/19 02:38:44;;;;;;;5.08;3.60;;;;;;;24.98;52.26;99446.16;1795058;79;21053;-65
2021/08/19 02:41:12;;;;;;;4.10;3.70;;;;;;;24.97;52.32;99449.39;1786720;79;21025;-64
2021/08/19 02:43:42;;;;;;;4.10;3.70;;;;;;;24.96;52.31;99454.58;1797413;78;21252;-63
2021/08/19 02:46:11;;;;;;;4.42;3.90;;;;;;;24.96;52.27;99457.84;1788381;79;21045;-63
2021/08/19 02:48:37;;;;;;;4.62;4.22;;;;;;;24.95;52.21;99458.36;1782488;79;21548;-64
2021/08/19 02:51:03;;;;;;;4.70;3.70;;;;;;;24.94;52.21;99459.47;1793039;79;20997;-64
2021/08/19 02:53:30;;;;;;;4.92;4.28;;;;;;;24.93;52.27;99458.63;1765834;79;21057;-64
2021/08/19 02:55:59;;;;;;;5.10;4.60;;;;;;;24.93;52.35;99459.17;1764316;80;21100;-64
2021/08/19 02:58:26;;;;;;;5.25;4.75;;;;;;;24.92;52.34;99459.73;1753184;80;21009;-64
2021/08/19 03:00:52;;;;;;;5.40;4.90;;;;;;;24.92;52.34;99454.84;1765830;80;21603;-64
2021/08/19 03:03:19;;;;;;;5.58;5.08;;;;;;;24.91;52.44;99449.12;1767920;80;21808;-64
2021/08/19 03:05:46;;;;;;;5.35;4.87;;;;;;;24.91;52.51;99447.21;1738695;80;21028;-63
2021/08/19 03:08:12;;;;;;;5.35;4.78;;;;;;;24.89;52.53;99445.31;1765499;80;21120;-64
2021/08/19 03:10:39;;;;;;;5.20;4.50;;;;;;;24.90;52.51;99447.50;1758020;80;21096;-64
2021/08/19 03:13:05;;;;;;;4.20;3.80;;;;;;;24.89;52.36;99448.03;1768851;80;21120;-64
2021/08/19 03:15:32;;;;;;;4.10;3.67;;;;;;;24.90;52.21;99444.79;1754253;79;21073;-63
2021/08/19 03:17:59;;;;;;;4.83;3.40;;;;;;;24.90;52.17;99449.67;1767735;81;21505;-63
2021/08/19 03:20:26;;;;;;;5.75;4.12;;;;;;;24.90;52.20;99453.75;1755856;80;22339;-64
2021/08/19 03:22:53;;;;;;;4.28;3.87;;;;;;;24.90;52.17;99451.03;1760077;79;21077;-65
2021/08/19 03:25:19;;;;;;;4.67;4.33;;;;;;;24.92;52.20;99463.00;1756254;80;21561;-64
2021/08/19 03:27:45;;;;;;;4.58;3.70;;;;;;;24.89;52.23;99467.05;1752775;78;21545;-65
2021/08/19 03:30:13;;;;;;;4.40;3.72;;;;;;;24.91;52.27;99468.14;1762043;79;21069;-65
2021/08/19 03:32:40;;;;;;;4.12;3.80;;;;;;;24.90;52.22;99462.45;1757529;79;21156;-63
2021/08/19 03:35:08;;;;;;;4.75;3.85;;;;;;;24.90;52.24;99474.13;1751138;80;21121;-63
2021/08/19 03:37:35;;;;;;;4.00;3.70;;;;;;;24.89;52.27;99473.03;1752791;79;21113;-64
2021/08/19 03:40:04;;;;;;;5.35;3.67;;;;;;;24.88;52.23;99470.05;1746437;80;20980;-65
2021/08/19 03:42:30;;;;;;;4.08;3.67;;;;;;;24.88;52.37;99462.72;1745093;79;21540;-66
2021/08/19 03:44:57;;;;;;;4.25;3.50;;;;;;;24.87;52.47;99454.83;1764344;79;21148;-66
2021/08/19 03:47:26;;;;;;;4.80;4.12;;;;;;;24.87;52.49;99456.19;1751920;80;21454;-65
2021/08/19 03:49:53;;;;;;;5.37;3.72;;;;;;;24.86;52.49;99460.81;1754866;79;21509;-66
2021/08/19 03:52:20;;;;;;;7.00;3.70;;;;;;;24.85;52.58;99465.95;1767063;79;21022;-64
2021/08/19 03:54:47;;;;;;;4.35;3.20;;;;;;;24.85;52.72;99476.02;1761774;79;21056;-64
2021/08/19 03:57:13;;;;;;;3.77;3.47;;;;;;;24.86;52.72;99477.63;1743182;78;21108;-64
2021/08/19 03:59:40;;;;;;;5.33;3.52;;;;;;;24.86;52.68;99477.11;1742294;80;21515;-65
2021/08/19 04:02:07;;;;;;;4.92;3.55;;;;;;;24.86;52.69;99474.39;1759455;80;21066;-64
2021/08/19 04:04:33;;;;;;;3.83;3.45;;;;;;;24.86;52.68;99474.39;1753112;80;20987;-65
2021/08/19 04:07:00;;;;;;;104.35;77.87;;;;;;;24.87;52.66;99479.27;1747549;79;21688;-64
2021/08/19 04:09:26;;;;;;;4.58;3.83;;;;;;;24.86;52.79;99482.55;1755407;80;21812;-64
2021/08/19 04:11:53;;;;;;;3.77;3.35;;;;;;;24.86;52.83;99485.27;1753574;78;21153;-65
2021/08/19 04:14:20;;;;;;;3.85;3.42;;;;;;;24.87;52.81;99489.59;1763314;78;21554;-64
2021/08/19 04:16:46;;;;;;;3.92;3.40;;;;;;;24.87;52.84;99487.42;1747244;80;21012;-64
2021/08/19 04:19:14;;;;;;;4.70;4.30;;;;;;;24.86;52.86;99489.85;1756037;80;20986;-64
2021/08/19 04:21:41;;;;;;;4.30;3.72;;;;;;;24.86;52.82;99491.21;1750391;79;21876;-64
2021/08/19 04:24:10;;;;;;;4.30;3.85;;;;;;;24.86;52.92;99489.34;1749355;80;21052;-64
2021/08/19 04:26:36;;;;;;;5.12;3.80;;;;;;;24.86;52.92;99490.69;1766969;79;21021;-64
2021/08/19 04:29:03;;;;;;;4.33;3.92;;;;;;;24.87;52.81;99489.59;1751795;80;21042;-64
2021/08/19 04:31:30;;;;;;;4.33;3.92;;;;;;;24.87;52.81;99489.59;1741374;79;21526;-63
2021/08/19 04:33:57;;;;;;;6.17;4.08;;;;;;;24.88;52.74;99497.22;1758992;80;21157;-65
2021/08/19 04:36:24;;;;;;;4.47;3.70;;;;;;;24.87;52.66;99501.82;1770593;79;21014;-64
2021/08/19 04:38:51;;;;;;;4.30;3.90;;;;;;;24.87;52.63;99505.89;1759328;79;22150;-65
2021/08/19 04:41:18;;;;;;;4.28;3.87;;;;;;;24.87;52.57;99502.37;1754556;80;21018;-64
2021/08/19 04:43:45;;;;;;;4.28;3.85;;;;;;;24.86;52.66;99503.44;1751554;80;21098;-65
2021/08/19 04:46:11;;;;;;;5.58;4.10;;;;;;;24.85;52.45;99503.98;1759408;80;21105;-64
2021/08/19 04:48:38;;;;;;;10.68;8.88;;;;;;;24.85;52.52;99501.27;1760084;80;21055;-63
2021/08/19 04:51:05;;;;;;;4.85;3.87;;;;;;;24.84;52.48;99494.22;1758217;79;21576;-64
2021/08/19 04:53:33;;;;;;;5.58;3.77;;;;;;;24.85;52.43;99498.55;1767600;79;21076;-64
2021/08/19 04:55:59;;;;;;;4.30;3.67;;;;;;;24.85;52.32;99499.91;1794082;79;21085;-64
2021/08/19 04:58:28;;;;;;;4.45;3.70;;;;;;;24.86;52.32;99504.80;1796392;79;21121;-64
2021/08/19 05:00:55;;;;;;;7.25;4.25;;;;;;;24.85;52.36;99506.70;1785906;78;21097;-64
2021/08/19 05:03:22;;;;;;;4.03;3.70;;;;;;;24.86;52.45;99503.44;1795644;79;21490;-64
2021/08/19 05:05:48;;;;;;;4.75;4.28;;;;;;;24.86;52.42;99503.44;1773587;79;21283;-65
2021/08/19 05:08:15;;;;;;;7.95;3.98;;;;;;;24.86;52.30;99503.44;1796095;79;21135;-65
2021/08/19 05:10:42;;;;;;;4.92;4.12;;;;;;;24.86;52.24;99508.35;1769476;79;21471;-64
2021/08/19 05:13:09;;;;;;;4.08;3.55;;;;;;;24.86;52.32;99504.28;1789324;79;21116;-64
2021/08/19 05:15:35;;;;;;;5.53;4.10;;;;;;;24.86;52.20;99502.92;1765591;79;21056;-63
2021/08/19 05:18:03;;;;;;;4.75;3.92;;;;;;;24.87;52.11;99497.74;1795744;78;21016;-63
2021/08/19 05:20:31;;;;;;;4.53;4.12;;;;;;;24.87;52.04;99497.74;1774271;79;21528;-64
2021/08/19 05:22:57;;;;;;;4.22;3.77;;;;;;;24.88;52.19;99502.11;1791562;79;21127;-64
2021/08/19 05:25:25;;;;;;;5.05;4.33;;;;;;;24.89;52.04;99505.63;1786881;79;21045;-65
2021/08/19 05:27:52;;;;;;;5.78;4.70;;;;;;;24.88;51.99;99503.47;1777262;79;21084;-63
2021/08/19 05:30:19;;;;;;;6.40;4.28;;;;;;;24.90;52.02;99501.30;1780283;79;21042;-65
2021/08/19 05:32:46;;;;;;;5.25;4.00;;;;;;;24.90;51.91;99504.02;1773694;79;21057;-64
2021/08/19 05:35:13;;;;;;;4.53;4.20;;;;;;;24.90;51.98;99497.22;1779331;79;21207;-66
2021/08/19 05:37:39;;;;;;;4.72;3.85;;;;;;;24.90;52.08;99502.66;1790446;79;21060;-66
2021/08/19 05:40:08;;;;;;;5.85;4.25;;;;;;;24.90;52.16;99505.37;1790637;79;21033;-64
2021/08/19 05:42:35;;;;;;;4.53;4.12;;;;;;;24.92;52.13;99513.26;1783380;79;21592;-65
2021/08/19 05:45:01;;;;;;;4.03;3.62;;;;;;;24.93;51.86;99509.44;1791379;79;21069;-66
2021/08/19 05:47:27;;;;;;;8.53;5.37;;;;;;;24.95;51.84;99505.91;1786940;79;21107;-63
2021/08/19 05:49:54;;;;;;;4.55;4.05;;;;;;;24.95;51.77;99514.06;1795041;78;21006;-65
2021/08/19 05:52:20;;;;;;;4.78;4.28;;;;;;;24.97;51.82;99505.65;1784713;79;21029;-66
2021/08/19 05:54:46;;;;;;;4.67;4.28;;;;;;;24.99;51.79;99498.84;1769149;80;21002;-64
2021/08/19 05:57:16;;;;;;;4.65;4.25;;;;;;;25.00;51.79;99495.61;1778740;80;21049;-66
2021/08/19 05:59:43;;;;;;;5.60;5.00;;;;;;;25.03;51.72;99503.20;1783191;80;21147;-65
2021/08/19 06:02:09;;;;;;;4.85;4.28;;;;;;;25.04;51.67;99507.57;1783195;80;21542;-66
2021/08/19 06:04:37;;;;;;;5.72;4.55;;;;;;;25.05;51.63;99505.11;1778526;80;21097;-66
2021/08/19 06:07:04;;;;;;;5.15;4.65;;;;;;;25.07;51.41;99496.14;1775286;80;21077;-66
2021/08/19 06:09:34;;;;;;;5.70;4.40;;;;;;;25.08;51.35;99493.71;1783396;80;21034;-65
2021/08/19 06:12:02;;;;;;;7.72;4.47;;;;;;;25.09;51.55;99491.25;1783250;80;21884;-64
2021/08/19 06:14:28;;;;;;;8.95;4.90;;;;;;;25.10;51.58;99494.26;1783491;80;21076;-64
2021/08/19 06:16:54;;;;;;;4.72;4.05;;;;;;;25.11;51.66;99491.28;1781459;80;22140;-64
2021/08/19 06:19:21;;;;;;;5.03;4.33;;;;;;;25.12;51.87;99482.02;1761526;80;21120;-65
2021/08/19 06:21:47;;;;;;;6.58;4.12;;;;;;;25.15;52.12;99487.48;1767806;80;21079;-65
2021/08/19 06:24:15;;;;;;;4.85;3.95;;;;;;;25.17;52.04;99489.38;1752833;80;21088;-65
2021/08/19 06:26:42;;;;;;;6.17;4.53;;;;;;;25.19;52.05;99495.36;1777710;80;21459;-64
2021/08/19 06:29:08;;;;;;;5.62;3.77;;;;;;;25.21;51.93;99498.63;1773106;80;21054;-65
2021/08/19 06:31:36;;;;;;;4.78;4.08;;;;;;;25.23;51.83;99492.40;1777195;80;21010;-64
2021/08/19 06:34:03;;;;;;;5.55;4.53;;;;;;;25.24;51.84;99493.20;1774403;80;21089;-65
2021/08/19 06:36:29;;;;;;;21.27;15.10;;;;;;;25.26;51.82;99505.43;1777018;80;21133;-65
2021/08/19 06:38:56;;;;;;;14.05;9.88;;;;;;;25.29;51.89;99505.45;1791676;80;21005;-63
2021/08/19 06:41:24;;;;;;;9.20;7.72;;;;;;;25.30;51.86;99501.62;1777212;80;21010;-65
2021/08/19 06:43:51;;;;;;;10.58;6.22;;;;;;;25.31;51.75;99504.09;1777311;80;21124;-65
2021/08/19 06:46:18;;;;;;;9.05;6.40;;;;;;;25.34;51.53;99509.52;1777501;80;21013;-65
2021/08/19 06:48:45;;;;;;;10.58;6.67;;;;;;;25.37;51.39;99515.78;1775791;80;21277;-64
2021/08/19 06:51:11;;;;;;;7.65;5.78;;;;;;;25.39;51.24;99523.67;1773581;80;21518;-63
2021/08/19 06:53:37;;;;;;;8.25;5.40;;;;;;;25.40;51.00;99520.69;1789051;79;21460;-63
2021/08/19 06:56:05;;;;;;;9.50;5.80;;;;;;;25.42;51.01;99517.16;1810905;79;21046;-65
2021/08/19 06:58:31;;;;;;;7.35;5.35;;;;;;;25.44;51.24;99510.89;1786510;78;21048;-65
2021/08/19 07:00:57;;;;;;;12.45;5.17;;;;;;;25.47;51.41;99510.33;1800615;78;21129;-64
2021/08/19 07:03:26;;;;;;;8.98;4.83;;;;;;;25.49;51.63;99508.71;1793858;78;21034;-63
2021/08/19 07:05:52;;;;;;;8.75;5.25;;;;;;;25.51;51.82;99510.61;1801380;78;21084;-64
2021/08/19 07:09:14;;;;;;;5.92;4.75;;;;;;;25.58;51.70;99492.13;1868110;76;22537;-66
2021/08/19 07:11:42;;;;;;;9.38;5.35;;;;;;;25.55;51.79;99491.84;1836281;77;21009;-66
2021/08/19 07:14:09;;;;;;;9.28;5.42;;;;;;;25.58;51.76;99494.03;1834402;77;21174;-65
2021/08/19 07:16:36;;;;;;;6.58;5.08;;;;;;;25.60;51.86;99496.73;1816686;78;21544;-66
2021/08/19 07:19:05;;;;;;;4.87;4.40;;;;;;;25.61;51.67;99497.03;1801826;78;21831;-66
2021/08/19 07:21:32;;;;;;;5.70;4.83;;;;;;;25.63;51.48;99498.92;1804471;78;21114;-66
2021/08/19 07:24:00;;;;;;;9.28;4.78;;;;;;;25.66;51.55;99500.27;1772240;78;21036;-66
2021/08/19 07:26:27;;;;;;;8.43;5.12;;;;;;;25.64;51.13;99497.02;1812202;78;21203;-67
2021/08/19 07:28:57;;;;;;;12.33;4.72;;;;;;;25.65;51.26;99498.63;1806139;78;21029;-64
2021/08/19 07:31:24;;;;;;;6.05;4.47;;;;;;;25.66;51.46;99494.83;1785404;79;21066;-66
2021/08/19 07:33:51;;;;;;;9.35;4.87;;;;;;;25.68;51.06;99489.38;1799146;78;20996;-66
2021/08/19 07:36:17;;;;;;;8.10;4.80;;;;;;;25.70;51.03;99492.64;1780348;80;21094;-66
2021/08/19 07:38:44;;;;;;;8.43;4.37;;;;;;;25.72;50.83;99502.45;1805640;78;21773;-64
2021/08/19 07:41:11;;;;;;;5.17;4.67;;;;;;;25.72;50.94;99507.33;1801609;78;21076;-64
2021/08/19 07:43:38;;;;;;;6.37;4.70;;;;;;;25.72;50.90;99508.69;1802880;78;21023;-64
2021/08/19 07:46:04;;;;;;;5.30;4.35;;;;;;;25.73;51.11;99510.86;1782675;80;21558;-66
2021/08/19 07:48:30;;;;;;;7.58;5.17;;;;;;;25.75;50.80;99512.77;1787971;79;22145;-65
2021/08/19 07:50:57;;;;;;;5.58;4.40;;;;;;;25.76;50.32;99515.21;1770681;79;21804;-65
2021/08/19 07:53:27;;;;;;;6.80;4.10;;;;;;;25.77;50.43;99516.02;1777573;79;21048;-63
2021/08/19 07:55:53;;;;;;;6.05;4.70;;;;;;;25.78;50.40;99517.67;1772282;79;21047;-62
2021/08/19 07:58:20;;;;;;;5.40;4.42;;;;;;;25.79;50.38;99512.52;1771908;79;21030;-64
2021/08/19 08:00:47;;;;;;;7.78;4.33;;;;;;;25.81;50.40;99510.33;1745615;79;21465;-65
2021/08/19 08:03:14;;;;;;;5.20;4.70;;;;;;;25.83;50.29;99509.51;1777038;79;21170;-66
2021/08/19 08:05:41;;;;;;;9.73;4.50;;;;;;;25.83;49.01;99521.75;1785078;79;21536;-66
2021/08/19 08:08:12;;;;;;;7.87;4.15;;;;;;;25.80;48.44;99508.13;1772248;79;21136;-64
2021/08/19 08:10:41;;;;;;;5.15;4.47;;;;;;;25.77;48.75;99507.34;1768501;79;21084;-63
2021/08/19 08:13:09;;;;;;;8.30;4.50;;;;;;;25.77;49.37;99507.34;1785454;79;21057;-63
2021/08/19 08:15:36;;;;;;;6.28;4.28;;;;;;;25.79;49.55;99510.59;1826639;77;21114;-64
2021/08/19 08:18:03;;;;;;;5.53;4.67;;;;;;;25.83;49.31;99506.78;1827801;77;21560;-63
2021/08/19 08:20:31;;;;;;;6.58;4.47;;;;;;;25.85;49.20;99505.97;1831192;77;21054;-66
2021/08/19 08:22:59;;;;;;;5.53;4.50;;;;;;;25.87;49.07;99505.14;1821218;77;21514;-67
2021/08/19 08:25:27;;;;;;;6.53;4.70;;;;;;;25.90;48.74;99508.66;1835397;77;21084;-61
2021/08/19 08:28:11;;;;;;;5.92;4.55;;;;;;;25.92;48.72;99504.34;1826587;77;21091;-61
2021/08/19 08:30:41;;;;;;;6.30;4.62;;;;;;;25.94;48.71;99502.16;1828040;77;21067;-61
2021/08/19 08:33:08;;;;;;;4.92;4.30;;;;;;;25.97;48.41;99502.97;1829037;77;21093;-61
2021/08/19 08:35:37;;;;;;;6.85;4.37;;;;;;;25.98;48.22;99499.14;1766255;80;21304;-61
2021/08/19 08:38:13;;;;;;;6.00;4.60;;;;;;;26.01;48.25;99502.69;1833140;77;21483;-61
2021/08/19 08:40:41;;;;;;;5.60;4.33;;;;;;;26.04;48.11;99498.87;1828103;77;21131;-61
2021/08/19 08:43:07;;;;;;;6.08;4.50;;;;;;;26.08;48.46;99510.83;1832150;77;21756;-62
2021/08/19 08:45:37;;;;;;;7.12;4.42;;;;;;;26.13;48.20;99503.74;1832802;77;21507;-61
2021/08/19 08:48:06;;;;;;;7.75;4.72;;;;;;;26.17;48.13;99506.17;1844375;77;21483;-61
2021/08/19 08:50:33;;;;;;;4.85;4.37;;;;;;;26.19;47.40;99498.55;1811489;77;21081;-62
2021/08/19 08:53:01;;;;;;;4.72;4.28;;;;;;;26.20;47.45;99489.30;1839981;77;21180;-61
2021/08/19 08:55:28;;;;;;;7.12;5.10;;;;;;;26.23;46.99;99490.92;1763308;80;21037;-62
2021/08/19 08:57:56;;;;;;;6.08;5.28;;;;;;;26.26;46.84;99490.91;1755900;81;20999;-63
2021/08/19 09:00:22;;;;;;;5.17;4.67;;;;;;;26.27;46.56;99484.38;1765168;79;21064;-61
2021/08/19 09:02:48;;;;;;;6.50;4.72;;;;;;;26.31;46.96;99484.09;1791009;79;22188;-60
2021/08/19 09:05:21;;;;;;;5.47;4.90;;;;;;;26.35;46.92;99483.80;1785171;79;21101;-63
2021/08/19 09:07:54;;;;;;;5.70;4.65;;;;;;;26.39;47.13;99479.97;1786811;79;21113;-61
2021/08/19 09:10:27;;;;;;;5.25;4.62;;;;;;;26.44;47.02;99482.66;1786210;79;21005;-61
2021/08/19 09:12:54;;;;;;;6.37;4.90;;;;;;;26.46;46.34;99475.85;1774495;79;21078;-61
2021/08/19 09:15:23;;;;;;;6.83;5.42;;;;;;;26.46;45.92;99473.13;1785580;79;21063;-61
2021/08/19 09:17:55;;;;;;;5.40;4.67;;;;;;;26.47;45.48;99472.02;1793804;79;21966;-61
2021/08/19 09:20:34;;;;;;;5.28;4.78;;;;;;;26.47;45.63;99466.57;1774618;80;21086;-60
2021/08/19 09:23:08;;;;;;;5.97;4.55;;;;;;;26.48;45.92;99464.12;1834409;77;21030;-60
2021/08/19 09:25:38;;;;;;;5.12;4.55;;;;;;;26.50;45.85;99463.83;1832860;77;21061;-62
2021/08/19 09:28:21;;;;;;;5.85;5.22;;;;;;;26.51;45.81;99453.77;1765813;80;21901;-62
2021/08/19 09:30:55;;;;;;;6.15;4.85;;;;;;;26.53;45.74;99451.02;1769389;80;21147;-62
2021/08/19 09:33:27;;;;;;;6.20;5.22;;;;;;;26.56;45.52;99450.99;1770847;80;21148;-62
2021/08/19 09:35:58;;;;;;;5.65;5.05;;;;;;;26.58;45.25;99454.25;1781659;79;21600;-62
2021/08/19 09:38:43;;;;;;;7.35;4.72;;;;;;;26.61;45.18;99453.73;1780136;79;21035;-61
2021/08/19 09:41:17;;;;;;;6.25;4.87;;;;;;;26.64;45.33;99456.71;1790686;79;21030;-61
2021/08/19 09:43:53;;;;;;;5.35;4.85;;;;;;;26.68;45.36;99457.77;1770458;79;21541;-62
2021/08/19 09:46:35;;;;;;;5.40;4.95;;;;;;;26.73;45.22;99454.75;1796135;79;21502;-59
2021/08/19 09:49:22;;;;;;;5.78;4.53;;;;;;;26.77;45.25;99453.92;1763377;80;21100;-62
2021/08/19 09:52:05;;;;;;;4.92;4.42;;;;;;;26.82;45.18;99459.31;1759720;80;21581;-61
2021/08/19 09:54:34;;;;;;;5.58;4.95;;;;;;;26.86;44.86;99463.10;1796901;79;21081;-63
2021/08/19 09:57:01;;;;;;;6.60;5.05;;;;;;;26.88;44.19;99462.27;1767880;79;21122;-63
2021/08/19 09:59:34;;;;;;;4.75;4.28;;;;;;;26.91;44.36;99458.71;1765742;80;21046;-65
2021/08/19 10:01:57;;;;;;;5.55;5.00;;;;;;;26.94;44.21;99460.87;1762779;79;21039;-64
2021/08/19 10:04:25;;;;;;;5.20;4.70;;;;;;;26.98;44.27;99457.84;1770338;80;21037;-61
2021/08/19 10:06:53;;;;;;;5.12;4.47;;;;;;;27.02;44.50;99457.55;1763561;79;21069;-62
2021/08/19 10:09:21;;;;;;;6.80;4.78;;;;;;;27.06;44.83;99456.71;1758973;80;21951;-61
2021/08/19 10:11:49;;;;;;;7.78;5.30;;;;;;;27.13;44.34;99454.20;1765230;80;21045;-60
2021/08/19 10:14:18;;;;;;;5.85;5.20;;;;;;;27.17;43.94;99446.52;1816699;77;21533;-61
2021/08/19 10:16:46;;;;;;;5.42;4.83;;;;;;;27.21;44.18;99448.94;1761083;80;21112;-62
2021/08/19 10:19:32;;;;;;;5.53;5.08;;;;;;;27.26;43.89;99446.77;1753804;80;21096;-63
2021/08/19 10:22:14;;;;;;;7.20;4.53;;;;;;;27.31;44.04;99445.34;1764329;80;21125;-63
2021/08/19 10:24:46;;;;;;;6.07;4.73;;;;;;;27.39;44.18;99438.45;1762370;80;21053;-61
2021/08/19 10:27:25;;;;;;;5.75;5.25;;;;;;;27.44;44.15;99438.41;1768158;79;21060;-63
2021/08/19 10:29:59;;;;;;;6.08;5.25;;;;;;;27.50;43.36;99446.00;1779417;79;21059;-64
2021/08/19 10:32:34;;;;;;;5.92;5.08;;;;;;;27.56;43.41;99444.84;1786547;79;21081;-65
2021/08/19 10:35:12;;;;;;;4.87;4.47;;;;;;;27.61;43.75;99442.88;1768727;80;21158;-63
2021/08/19 10:37:49;;;;;;;6.42;5.17;;;;;;;27.68;43.31;99435.73;1763797;79;21072;-61
2021/08/19 10:40:28;;;;;;;5.92;5.33;;;;;;;27.73;43.58;99438.39;1770518;79;21077;-61
2021/08/19 10:43:00;;;;;;;5.40;4.90;;;;;;;27.78;43.47;99432.89;1833522;77;21072;-64
2021/08/19 10:45:33;;;;;;;5.75;5.03;;;;;;;27.83;43.35;99436.09;1840283;77;21065;-61
2021/08/19 10:48:12;;;;;;;5.70;5.10;;;;;;;27.86;43.39;99436.89;1826764;77;20996;-62
2021/08/19 10:50:43;;;;;;;5.45;4.95;;;;;;;27.89;43.29;99440.42;1833285;77;20986;-61
2021/08/19 10:53:21;;;;;;;6.20;5.05;;;;;;;27.92;43.26;99435.76;1752170;79;21018;-63
2021/08/19 10:55:52;;;;;;;6.25;5.03;;;;;;;27.94;42.17;99433.55;1785687;79;21589;-61
2021/08/19 10:58:32;;;;;;;5.70;5.20;;;;;;;27.97;42.94;99423.42;1787529;79;21517;-61
2021/08/19 11:01:17;;;;;;;10.13;7.20;;;;;;;28.01;42.90;99422.30;1761225;80;21124;-61
2021/08/19 11:03:49;;;;;;;10.72;7.85;;;;;;;28.05;43.19;99430.16;1751366;80;21058;-63
2021/08/19 11:06:19;;;;;;;12.43;7.92;;;;;;;28.07;43.29;99434.77;1760641;79;21584;-61
2021/08/19 11:08:59;;;;;;;6.65;5.95;;;;;;;28.07;42.42;99434.77;1779093;79;21046;-61
2021/08/19 11:11:36;;;;;;;8.05;6.28;;;;;;;28.08;42.59;99445.94;1750527;80;21022;-60
2021/08/19 11:14:20;;;;;;;8.58;6.33;;;;;;;28.08;42.52;99441.04;1764801;80;21022;-60
2021/08/19 11:16:56;;;;;;;7.00;6.30;;;;;;;28.10;42.54;99441.00;1722047;82;21090;-62
2021/08/19 11:19:29;;;;;;;6.75;6.03;;;;;;;28.10;42.64;99440.20;1758799;80;21472;-62
2021/08/19 11:22:04;;;;;;;8.33;6.03;;;;;;;28.09;42.50;99446.78;1771440;80;21105;-61
2021/08/19 11:24:33;;;;;;;6.55;5.95;;;;;;;28.08;42.37;99446.50;1763330;80;21035;-61
2021/08/19 11:27:10;;;;;;;6.78;5.20;;;;;;;28.06;42.15;99445.42;1760894;80;21146;-63
2021/08/19 11:29:44;;;;;;;6.28;5.62;;;;;;;28.07;41.95;99448.42;1743503;81;21098;-62
2021/08/19 11:32:15;;;;;;;6.62;5.75;;;;;;;28.06;42.09;99445.42;1744030;81;21041;-62
2021/08/19 11:34:50;;;;;;;7.22;6.33;;;;;;;28.08;41.27;99439.67;1737970;81;21501;-60
2021/08/19 11:37:33;;;;;;;7.33;6.00;;;;;;;28.09;41.28;99433.12;1736865;81;21033;-60
2021/08/19 11:40:02;;;;;;;6.33;5.45;;;;;;;28.11;41.98;99424.09;1739810;81;21805;-61
2021/08/19 11:42:34;;;;;;;7.30;5.80;;;;;;;28.13;41.87;99425.97;1735528;81;21057;-60